sensor_id;sensor_type;location;lat;lon;timestamp;pressure;altitude;pressure_sealevel;temperature;humidity
20710;BME280;10516;51.518;9.864;2023-02-23T00:01:46;98418.72;;;8.10;87.24
20710;BME280;10516;51.518;9.864;2023-02-23T00:04:11;98419.78;;;8.09;87.59
20710;BME280;10516;51.518;9.864;2023-02-23T00:06:36;98423.00;;;8.11;86.53
20710;BME280;10516;51.518;9.864;2023-02-23T00:09:03;98426.69;;;8.10;86.66
20710;BME280;10516;51.518;9.864;2023-02-23T00:11:36;98434.28;;;8.02;86.95
20710;BME280;10516;51.518;9.864;2023-02-23T00:14:02;98424.47;;;8.02;86.63
20710;BME280;10516;51.518;9.864;2023-02-23T00:16:27;98425.53;;;8.01;87.01
20710;BME280;10516;51.518;9.864;2023-02-23T00:18:53;98423.50;;;7.92;86.88
20710;BME280;10516;51.518;9.864;2023-02-23T00:21:20;98424.63;;;7.96;87.02
20710;BME280;10516;51.518;9.864;2023-02-23T00:23:53;98425.59;;;7.90;86.60
20710;BME280;10516;51.518;9.864;2023-02-23T00:26:19;98425.50;;;7.85;87.61
20710;BME280;10516;51.518;9.864;2023-02-23T00:28:45;98422.63;;;7.86;87.03
20710;BME280;10516;51.518;9.864;2023-02-23T00:31:11;98418.34;;;7.85;86.49
20710;BME280;10516;51.518;9.864;2023-02-23T00:33:36;98420.19;;;7.85;86.77
20710;BME280;10516;51.518;9.864;2023-02-23T00:36:05;98418.81;;;7.82;86.49
20710;BME280;10516;51.518;9.864;2023-02-23T00:38:32;98418.03;;;7.82;86.46
20710;BME280;10516;51.518;9.864;2023-02-23T00:41:03;98420.19;;;7.85;86.54
20710;BME280;10516;51.518;9.864;2023-02-23T00:43:31;98428.66;;;7.82;86.42
20710;BME280;10516;51.518;9.864;2023-02-23T00:45:57;98418.97;;;7.76;86.55
20710;BME280;10516;51.518;9.864;2023-02-23T00:48:22;98426.06;;;7.70;86.81
20710;BME280;10516;51.518;9.864;2023-02-23T00:50:55;98429.44;;;7.66;86.75
20710;BME280;10516;51.518;9.864;2023-02-23T00:53:21;98428.47;;;7.72;86.25
20710;BME280;10516;51.518;9.864;2023-02-23T00:55:46;98432.41;;;7.69;86.77
20710;BME280;10516;51.518;9.864;2023-02-23T00:58:11;98429.59;;;7.76;87.40
20710;BME280;10516;51.518;9.864;2023-02-23T01:00:38;98428.00;;;7.75;86.72
20710;BME280;10516;51.518;9.864;2023-02-23T01:03:06;98435.72;;;7.76;86.10
20710;BME280;10516;51.518;9.864;2023-02-23T01:05:33;98439.66;;;7.74;87.08
20710;BME280;10516;51.518;9.864;2023-02-23T01:07:58;98436.13;;;7.68;86.70
20710;BME280;10516;51.518;9.864;2023-02-23T01:10:23;98440.53;;;7.63;87.46
20710;BME280;10516;51.518;9.864;2023-02-23T01:12:49;98436.84;;;7.64;86.88
20710;BME280;10516;51.518;9.864;2023-02-23T01:15:16;98435.00;;;7.64;87.38
20710;BME280;10516;51.518;9.864;2023-02-23T01:17:41;98442.56;;;7.55;87.18
20710;BME280;10516;51.518;9.864;2023-02-23T01:20:07;98439.41;;;7.58;87.36
20710;BME280;10516;51.518;9.864;2023-02-23T01:22:47;98444.97;;;7.57;87.07
20710;BME280;10516;51.518;9.864;2023-02-23T01:25:13;98439.91;;;7.55;88.35
20710;BME280;10516;51.518;9.864;2023-02-23T01:27:41;98439.91;;;7.55;87.63
20710;BME280;10516;51.518;9.864;2023-02-23T01:30:13;98439.91;;;7.55;88.04
20710;BME280;10516;51.518;9.864;2023-02-23T01:32:39;98443.50;;;7.49;88.05
20710;BME280;10516;51.518;9.864;2023-02-23T01:35:06;98446.25;;;7.54;88.26
20710;BME280;10516;51.518;9.864;2023-02-23T01:37:36;98442.63;;;7.61;87.99
20710;BME280;10516;51.518;9.864;2023-02-23T01:40:04;98438.84;;;7.56;87.64
20710;BME280;10516;51.518;9.864;2023-02-23T01:42:38;98444.16;;;7.56;88.73
20710;BME280;10516;51.518;9.864;2023-02-23T01:45:17;98440.47;;;7.57;88.24
20710;BME280;10516;51.518;9.864;2023-02-23T01:47:43;98436.28;;;7.62;88.50
20710;BME280;10516;51.518;9.864;2023-02-23T01:50:08;98432.56;;;7.63;88.22
20710;BME280;10516;51.518;9.864;2023-02-23T01:52:35;98427.50;;;7.61;88.08
20710;BME280;10516;51.518;9.864;2023-02-23T01:55:01;98431.78;;;7.62;88.14
20710;BME280;10516;51.518;9.864;2023-02-23T01:57:27;98431.84;;;7.67;87.70
20710;BME280;10516;51.518;9.864;2023-02-23T01:59:52;98433.69;;;7.67;87.94
20710;BME280;10516;51.518;9.864;2023-02-23T02:02:19;98427.59;;;7.66;88.51
20710;BME280;10516;51.518;9.864;2023-02-23T02:04:45;98429.84;;;7.57;87.91
20710;BME280;10516;51.518;9.864;2023-02-23T02:07:12;98423.47;;;7.58;88.57
20710;BME280;10516;51.518;9.864;2023-02-23T02:09:39;98420.34;;;7.62;88.21
20710;BME280;10516;51.518;9.864;2023-02-23T02:12:11;98428.31;;;7.62;88.93
20710;BME280;10516;51.518;9.864;2023-02-23T02:14:36;98434.66;;;7.61;87.99
20710;BME280;10516;51.518;9.864;2023-02-23T02:25:09;98421.00;;;7.69;88.66
20710;BME280;10516;51.518;9.864;2023-02-23T02:40:47;98409.31;;;7.70;88.16
20710;BME280;10516;51.518;9.864;2023-02-23T02:46:00;98409.31;;;7.70;88.46
20710;BME280;10516;51.518;9.864;2023-02-23T02:53:43;98409.94;;;7.43;89.21
20710;BME280;10516;51.518;9.864;2023-02-23T02:56:05;98411.31;;;7.63;88.36
20710;BME280;10516;51.518;9.864;2023-02-23T02:58:32;98407.56;;;7.30;88.37
20710;BME280;10516;51.518;9.864;2023-02-23T03:01:04;98405.50;;;6.93;89.27
20710;BME280;10516;51.518;9.864;2023-02-23T03:03:48;98412.19;;;7.51;89.21
20710;BME280;10516;51.518;9.864;2023-02-23T03:06:33;98412.41;;;7.33;87.76
20710;BME280;10516;51.518;9.864;2023-02-23T03:18:34;98415.25;;;7.60;88.41
20710;BME280;10516;51.518;9.864;2023-02-23T03:21:23;98417.44;;;7.63;88.39
20710;BME280;10516;51.518;9.864;2023-02-23T03:30:05;98410.59;;;6.94;89.52
20710;BME280;10516;51.518;9.864;2023-02-23T03:32:54;98413.88;;;7.41;89.98
20710;BME280;10516;51.518;9.864;2023-02-23T03:35:54;98417.19;;;7.48;89.70
20710;BME280;10516;51.518;9.864;2023-02-23T03:38:44;98415.59;;;7.64;88.88
20710;BME280;10516;51.518;9.864;2023-02-23T03:41:29;98414.38;;;7.54;87.74
20710;BME280;10516;51.518;9.864;2023-02-23T03:44:20;98418.72;;;7.61;87.78
20710;BME280;10516;51.518;9.864;2023-02-23T03:47:05;98415.03;;;7.62;87.72
20710;BME280;10516;51.518;9.864;2023-02-23T03:49:52;98416.63;;;7.63;87.29
20710;BME280;10516;51.518;9.864;2023-02-23T03:52:41;98417.44;;;7.63;87.49
20710;BME280;10516;51.518;9.864;2023-02-23T03:55:31;98416.22;;;7.54;87.48
20710;BME280;10516;51.518;9.864;2023-02-23T03:58:17;98417.13;;;7.60;88.09
20710;BME280;10516;51.518;9.864;2023-02-23T04:01:05;98421.31;;;7.55;88.08
20710;BME280;10516;51.518;9.864;2023-02-23T04:03:51;98411.41;;;7.51;87.95
20710;BME280;10516;51.518;9.864;2023-02-23T04:06:37;98419.59;;;7.49;87.74
20710;BME280;10516;51.518;9.864;2023-02-23T04:09:23;98416.16;;;7.49;88.80
20710;BME280;10516;51.518;9.864;2023-02-23T04:15:10;98415.19;;;7.55;87.34
20710;BME280;10516;51.518;9.864;2023-02-23T04:17:36;98416.22;;;7.54;87.78
20710;BME280;10516;51.518;9.864;2023-02-23T04:20:02;98416.47;;;7.52;87.32
20710;BME280;10516;51.518;9.864;2023-02-23T04:22:27;98417.19;;;7.48;87.75
20710;BME280;10516;51.518;9.864;2023-02-23T04:24:53;98418.81;;;7.49;87.54
20710;BME280;10516;51.518;9.864;2023-02-23T04:27:18;98412.13;;;7.46;88.25
20710;BME280;10516;51.518;9.864;2023-02-23T04:29:43;98410.53;;;7.34;87.66
20710;BME280;10516;51.518;9.864;2023-02-23T04:32:14;98410.06;;;7.37;88.35
20710;BME280;10516;51.518;9.864;2023-02-23T04:34:40;98410.25;;;7.47;87.77
20710;BME280;10516;51.518;9.864;2023-02-23T04:37:05;98415.34;;;7.48;87.60
20710;BME280;10516;51.518;9.864;2023-02-23T04:39:30;98414.78;;;7.46;88.09
20710;BME280;10516;51.518;9.864;2023-02-23T04:41:56;98403.59;;;7.44;87.64
20710;BME280;10516;51.518;9.864;2023-02-23T04:44:21;98412.91;;;7.47;87.67
20710;BME280;10516;51.518;9.864;2023-02-23T04:46:46;98407.84;;;7.45;87.74
20710;BME280;10516;51.518;9.864;2023-02-23T04:49:11;98402.53;;;7.45;87.88
20710;BME280;10516;51.518;9.864;2023-02-23T04:51:37;98405.75;;;7.47;87.52
20710;BME280;10516;51.518;9.864;2023-02-23T04:54:02;98407.84;;;7.45;87.81
20710;BME280;10516;51.518;9.864;2023-02-23T04:56:28;98401.16;;;7.43;87.30
20710;BME280;10516;51.518;9.864;2023-02-23T04:58:53;98409.38;;;7.41;87.74
20710;BME280;10516;51.518;9.864;2023-02-23T05:01:18;98408.91;;;7.44;87.58
20710;BME280;10516;51.518;9.864;2023-02-23T05:03:46;98409.13;;;7.43;87.32
20710;BME280;10516;51.518;9.864;2023-02-23T05:06:11;98408.22;;;7.37;87.74
20710;BME280;10516;51.518;9.864;2023-02-23T05:08:37;98414.94;;;7.40;87.79
20710;BME280;10516;51.518;9.864;2023-02-23T05:11:02;98411.34;;;7.34;87.62
20710;BME280;10516;51.518;9.864;2023-02-23T05:13:27;98415.28;;;7.32;87.91
20710;BME280;10516;51.518;9.864;2023-02-23T05:15:56;98409.66;;;7.28;88.42
20710;BME280;10516;51.518;9.864;2023-02-23T05:18:21;98411.50;;;7.28;88.09
20710;BME280;10516;51.518;9.864;2023-02-23T05:20:47;98412.78;;;7.25;88.19
20710;BME280;10516;51.518;9.864;2023-02-23T05:23:13;98415.69;;;7.24;87.89
20710;BME280;10516;51.518;9.864;2023-02-23T05:25:38;98411.22;;;7.13;89.35
20710;BME280;10516;51.518;9.864;2023-02-23T05:28:04;98410.91;;;7.09;89.28
20710;BME280;10516;51.518;9.864;2023-02-23T05:30:29;98423.53;;;7.19;89.07
20710;BME280;10516;51.518;9.864;2023-02-23T05:32:54;98418.66;;;7.27;87.97
20710;BME280;10516;51.518;9.864;2023-02-23T05:35:20;98423.25;;;7.32;88.05
20710;BME280;10516;51.518;9.864;2023-02-23T05:37:45;98418.91;;;7.26;88.77
20710;BME280;10516;51.518;9.864;2023-02-23T05:40:10;98422.94;;;7.28;88.83
20710;BME280;10516;51.518;9.864;2023-02-23T05:42:36;98425.16;;;7.20;89.53
20710;BME280;10516;51.518;9.864;2023-02-23T05:45:02;98417.06;;;7.26;88.86
20710;BME280;10516;51.518;9.864;2023-02-23T05:47:29;98423.50;;;7.30;88.63
20710;BME280;10516;51.518;9.864;2023-02-23T05:49:55;98417.63;;;7.28;88.33
20710;BME280;10516;51.518;9.864;2023-02-23T05:52:21;98421.41;;;7.32;88.59
20710;BME280;10516;51.518;9.864;2023-02-23T05:54:47;98421.41;;;7.32;88.23
20710;BME280;10516;51.518;9.864;2023-02-23T05:57:12;98421.91;;;7.29;88.79
20710;BME280;10516;51.518;9.864;2023-02-23T05:59:37;98419.81;;;7.31;88.92
20710;BME280;10516;51.518;9.864;2023-02-23T06:02:02;98416.66;;;7.34;88.09
20710;BME280;10516;51.518;9.864;2023-02-23T06:04:31;98422.53;;;7.36;88.25
20710;BME280;10516;51.518;9.864;2023-02-23T06:06:56;98414.13;;;7.11;88.51
20710;BME280;10516;51.518;9.864;2023-02-23T06:09:22;98420.09;;;6.90;89.75
20710;BME280;10516;51.518;9.864;2023-02-23T06:11:48;98418.38;;;7.12;90.18
20710;BME280;10516;51.518;9.864;2023-02-23T06:14:13;98427.38;;;7.11;88.79
20710;BME280;10516;51.518;9.864;2023-02-23T06:16:40;98423.66;;;6.84;89.32
20710;BME280;10516;51.518;9.864;2023-02-23T06:19:05;98424.06;;;7.04;91.07
20710;BME280;10516;51.518;9.864;2023-02-23T06:21:31;98426.44;;;7.17;89.52
20710;BME280;10516;51.518;9.864;2023-02-23T06:23:56;98426.69;;;7.16;89.39
20710;BME280;10516;51.518;9.864;2023-02-23T06:26:24;98428.06;;;6.78;90.75
20710;BME280;10516;51.518;9.864;2023-02-23T06:28:49;98431.97;;;6.76;90.70
20710;BME280;10516;51.518;9.864;2023-02-23T06:31:15;98436.47;;;7.15;90.22
20710;BME280;10516;51.518;9.864;2023-02-23T06:33:40;98429.75;;;7.24;89.85
20710;BME280;10516;51.518;9.864;2023-02-23T06:36:06;98425.59;;;7.28;89.28
20710;BME280;10516;51.518;9.864;2023-02-23T06:38:31;98434.44;;;7.34;88.83
20710;BME280;10516;51.518;9.864;2023-02-23T06:40:56;98431.88;;;7.39;88.53
20710;BME280;10516;51.518;9.864;2023-02-23T06:43:22;98440.34;;;7.36;88.98
20710;BME280;10516;51.518;9.864;2023-02-23T06:45:47;98444.84;;;7.35;88.33
20710;BME280;10516;51.518;9.864;2023-02-23T06:48:12;98442.66;;;7.32;89.48
20710;BME280;10516;51.518;9.864;2023-02-23T06:50:37;98454.50;;;7.41;88.87
20710;BME280;10516;51.518;9.864;2023-02-23T06:53:03;98451.75;;;7.36;88.67
20710;BME280;10516;51.518;9.864;2023-02-23T06:55:29;98457.25;;;7.46;88.30
20710;BME280;10516;51.518;9.864;2023-02-23T06:57:54;98454.25;;;7.43;88.72
20710;BME280;10516;51.518;9.864;2023-02-23T07:00:19;98456.59;;;7.39;88.64
20710;BME280;10516;51.518;9.864;2023-02-23T07:02:45;98451.84;;;7.41;89.08
20710;BME280;10516;51.518;9.864;2023-02-23T07:05:10;98454.59;;;7.46;88.28
20710;BME280;10516;51.518;9.864;2023-02-23T07:07:35;98462.78;;;7.45;88.80
20710;BME280;10516;51.518;9.864;2023-02-23T07:10:00;98461.75;;;7.46;88.66
20710;BME280;10516;51.518;9.864;2023-02-23T07:12:26;98470.53;;;7.46;88.46
20710;BME280;10516;51.518;9.864;2023-02-23T07:14:51;98463.28;;;7.42;88.70
20710;BME280;10516;51.518;9.864;2023-02-23T07:17:16;98466.25;;;7.45;88.69
20710;BME280;10516;51.518;9.864;2023-02-23T07:19:42;98466.91;;;7.52;88.32
20710;BME280;10516;51.518;9.864;2023-02-23T07:22:07;98475.63;;;7.36;89.35
20710;BME280;10516;51.518;9.864;2023-02-23T07:24:32;98479.81;;;7.32;89.66
20710;BME280;10516;51.518;9.864;2023-02-23T07:26:58;98478.72;;;7.45;89.11
20710;BME280;10516;51.518;9.864;2023-02-23T07:29:23;98484.72;;;7.40;89.54
20710;BME280;10516;51.518;9.864;2023-02-23T07:31:48;98486.03;;;7.38;88.93
20710;BME280;10516;51.518;9.864;2023-02-23T07:34:14;98489.59;;;7.43;88.65
20710;BME280;10516;51.518;9.864;2023-02-23T07:36:39;98470.59;;;7.51;89.07
20710;BME280;10516;51.518;9.864;2023-02-23T07:39:05;98478.34;;;7.53;88.34
20710;BME280;10516;51.518;9.864;2023-02-23T07:41:30;98484.22;;;7.55;88.57
20710;BME280;10516;51.518;9.864;2023-02-23T07:43:56;98476.69;;;7.64;89.15
20710;BME280;10516;51.518;9.864;2023-02-23T07:46:22;98484.91;;;7.62;88.32
20710;BME280;10516;51.518;9.864;2023-02-23T07:48:47;98483.53;;;7.60;88.95
20710;BME280;10516;51.518;9.864;2023-02-23T07:51:13;98483.03;;;7.63;89.41
20710;BME280;10516;51.518;9.864;2023-02-23T07:53:39;98482.56;;;7.66;88.98
20710;BME280;10516;51.518;9.864;2023-02-23T07:56:05;98483.41;;;7.54;89.84
20710;BME280;10516;51.518;9.864;2023-02-23T07:58:32;98486.59;;;7.40;90.27
20710;BME280;10516;51.518;9.864;2023-02-23T08:00:57;98489.75;;;7.25;91.86
20710;BME280;10516;51.518;9.864;2023-02-23T08:03:23;98492.94;;;6.99;92.10
20710;BME280;10516;51.518;9.864;2023-02-23T08:05:48;98502.91;;;6.80;92.47
20710;BME280;10516;51.518;9.864;2023-02-23T08:08:13;98504.97;;;6.78;93.38
20710;BME280;10516;51.518;9.864;2023-02-23T08:10:38;98500.69;;;6.89;93.26
20710;BME280;10516;51.518;9.864;2023-02-23T08:13:04;98492.84;;;6.94;93.51
20710;BME280;10516;51.518;9.864;2023-02-23T08:15:29;98502.19;;;6.97;92.89
20710;BME280;10516;51.518;9.864;2023-02-23T08:17:55;98494.88;;;7.04;93.39
20710;BME280;10516;51.518;9.864;2023-02-23T08:20:21;98493.91;;;7.21;91.98
20710;BME280;10516;51.518;9.864;2023-02-23T08:22:46;98500.88;;;7.50;91.01
20710;BME280;10516;51.518;9.864;2023-02-23T08:25:11;98501.53;;;7.57;90.27
20710;BME280;10516;51.518;9.864;2023-02-23T08:27:37;98506.28;;;7.55;89.62
20710;BME280;10516;51.518;9.864;2023-02-23T08:30:02;98513.00;;;7.46;90.88
20710;BME280;10516;51.518;9.864;2023-02-23T08:32:31;98504.38;;;7.68;90.47
20710;BME280;10516;51.518;9.864;2023-02-23T08:34:59;98507.59;;;7.70;89.57
20710;BME280;10516;51.518;9.864;2023-02-23T08:37:26;98504.41;;;7.84;88.55
20710;BME280;10516;51.518;9.864;2023-02-23T08:39:53;98502.50;;;7.80;88.47
20710;BME280;10516;51.518;9.864;2023-02-23T08:42:18;98511.22;;;7.64;88.69
20710;BME280;10516;51.518;9.864;2023-02-23T08:44:43;98509.00;;;7.32;89.81
20710;BME280;10516;51.518;9.864;2023-02-23T08:47:08;98511.31;;;7.69;89.41
20710;BME280;10516;51.518;9.864;2023-02-23T08:49:34;98513.38;;;7.67;89.80
20710;BME280;10516;51.518;9.864;2023-02-23T08:51:59;98506.94;;;7.63;89.26
20710;BME280;10516;51.518;9.864;2023-02-23T08:54:24;98511.19;;;7.35;90.85
20710;BME280;10516;51.518;9.864;2023-02-23T08:56:51;98511.25;;;7.12;91.61
20710;BME280;10516;51.518;9.864;2023-02-23T08:59:19;98513.00;;;7.46;90.61
20710;BME280;10516;51.518;9.864;2023-02-23T09:01:45;98515.75;;;7.51;90.06
20710;BME280;10516;51.518;9.864;2023-02-23T09:04:10;98512.75;;;7.20;91.70
20710;BME280;10516;51.518;9.864;2023-02-23T09:06:36;98523.88;;;6.94;93.28
20710;BME280;10516;51.518;9.864;2023-02-23T09:09:02;98519.84;;;6.91;94.04
20710;BME280;10516;51.518;9.864;2023-02-23T09:11:27;98519.38;;;6.94;93.95
20710;BME280;10516;51.518;9.864;2023-02-23T09:13:52;98525.59;;;6.88;95.14
20710;BME280;10516;51.518;9.864;2023-02-23T09:16:18;98532.19;;;6.74;95.68
20710;BME280;10516;51.518;9.864;2023-02-23T09:18:43;98529.91;;;6.66;96.49
20710;BME280;10516;51.518;9.864;2023-02-23T09:21:13;98534.50;;;6.70;97.04
20710;BME280;10516;51.518;9.864;2023-02-23T09:23:42;98530.19;;;7.04;94.34
20710;BME280;10516;51.518;9.864;2023-02-23T09:26:09;98538.06;;;6.88;95.69
20710;BME280;10516;51.518;9.864;2023-02-23T09:28:36;98532.31;;;6.79;95.71
20710;BME280;10516;51.518;9.864;2023-02-23T09:31:07;98544.63;;;6.73;95.95
20710;BME280;10516;51.518;9.864;2023-02-23T09:33:32;98539.66;;;7.00;95.03
20710;BME280;10516;51.518;9.864;2023-02-23T09:35:57;98542.69;;;6.80;95.95
20710;BME280;10516;51.518;9.864;2023-02-23T09:38:23;98544.19;;;6.65;95.89
20710;BME280;10516;51.518;9.864;2023-02-23T09:40:49;98532.47;;;7.24;94.06
20710;BME280;10516;51.518;9.864;2023-02-23T09:43:31;98546.03;;;6.88;94.79
20710;BME280;10516;51.518;9.864;2023-02-23T09:46:13;98535.41;;;6.88;96.58
20710;BME280;10516;51.518;9.864;2023-02-23T09:48:44;98541.81;;;7.26;93.40
20710;BME280;10516;51.518;9.864;2023-02-23T09:51:11;98536.06;;;7.18;94.35
20710;BME280;10516;51.518;9.864;2023-02-23T09:53:46;98544.34;;;7.21;94.23
20710;BME280;10516;51.518;9.864;2023-02-23T09:56:27;98543.69;;;7.54;92.50
20710;BME280;10516;51.518;9.864;2023-02-23T09:58:55;98539.47;;;7.41;92.64
20710;BME280;10516;51.518;9.864;2023-02-23T10:06:30;98538.59;;;7.13;95.59
20710;BME280;10516;51.518;9.864;2023-02-23T10:08:59;98532.97;;;7.09;96.67
20710;BME280;10516;51.518;9.864;2023-02-23T10:11:39;98546.34;;;7.03;97.30
20710;BME280;10516;51.518;9.864;2023-02-23T10:21:56;98559.25;;;7.11;98.03
20710;BME280;10516;51.518;9.864;2023-02-23T10:24:38;98564.81;;;7.09;97.95
20710;BME280;10516;51.518;9.864;2023-02-23T10:27:15;98566.41;;;7.10;98.27
20710;BME280;10516;51.518;9.864;2023-02-23T10:29:46;98556.94;;;7.14;98.03
20710;BME280;10516;51.518;9.864;2023-02-23T10:34:37;98553.81;;;7.29;96.84
20710;BME280;10516;51.518;9.864;2023-02-23T10:37:05;98557.19;;;7.64;94.48
20710;BME280;10516;51.518;9.864;2023-02-23T10:39:33;98553.84;;;7.85;92.12
20710;BME280;10516;51.518;9.864;2023-02-23T10:42:00;98552.84;;;7.75;92.66
20710;BME280;10516;51.518;9.864;2023-02-23T10:44:26;98549.84;;;7.71;93.90
20710;BME280;10516;51.518;9.864;2023-02-23T10:47:13;98553.38;;;7.88;91.59
20710;BME280;10516;51.518;9.864;2023-02-23T10:49:44;98553.88;;;8.02;90.22
20710;BME280;10516;51.518;9.864;2023-02-23T10:52:10;98552.81;;;7.86;92.34
20710;BME280;10516;51.518;9.864;2023-02-23T10:54:44;98553.66;;;7.75;93.99
20710;BME280;10516;51.518;9.864;2023-02-23T10:57:33;98549.88;;;7.99;91.90
20710;BME280;10516;51.518;9.864;2023-02-23T11:02:41;98548.91;;;8.22;90.15
20710;BME280;10516;51.518;9.864;2023-02-23T11:05:08;98548.66;;;8.23;89.69
20710;BME280;10516;51.518;9.864;2023-02-23T11:07:49;98546.81;;;8.24;90.01
20710;BME280;10516;51.518;9.864;2023-02-23T11:10:26;98543.97;;;8.25;90.30
20710;BME280;10516;51.518;9.864;2023-02-23T11:12:52;98545.19;;;8.06;92.59
20710;BME280;10516;51.518;9.864;2023-02-23T11:17:53;98554.13;;;7.72;94.78
20710;BME280;10516;51.518;9.864;2023-02-23T11:20:22;98549.81;;;7.83;96.00
20710;BME280;10516;51.518;9.864;2023-02-23T11:22:49;98540.25;;;7.82;95.74
20710;BME280;10516;51.518;9.864;2023-02-23T11:25:19;98534.63;;;7.95;95.79
20710;BME280;10516;51.518;9.864;2023-02-23T11:27:48;98536.25;;;7.68;96.34
20710;BME280;10516;51.518;9.864;2023-02-23T11:30:15;98540.44;;;7.64;98.48
20710;BME280;10516;51.518;9.864;2023-02-23T11:32:44;98529.38;;;7.83;95.74
20710;BME280;10516;51.518;9.864;2023-02-23T11:37:46;98530.88;;;8.24;91.54
20710;BME280;10516;51.518;9.864;2023-02-23T11:40:22;98515.28;;;8.27;90.88
20710;BME280;10516;51.518;9.864;2023-02-23T11:45:20;98523.25;;;8.27;92.66
20710;BME280;10516;51.518;9.864;2023-02-23T11:47:50;98519.47;;;8.40;90.96
20710;BME280;10516;51.518;9.864;2023-02-23T11:50:30;98513.91;;;8.42;90.62
20710;BME280;10516;51.518;9.864;2023-02-23T11:53:11;98519.56;;;8.17;93.87
20710;BME280;10516;51.518;9.864;2023-02-23T11:55:37;98514.41;;;8.10;93.15
20710;BME280;10516;51.518;9.864;2023-02-23T12:00:55;98511.75;;;8.39;91.15
20710;BME280;10516;51.518;9.864;2023-02-23T12:03:20;98512.38;;;8.29;91.42
20710;BME280;10516;51.518;9.864;2023-02-23T12:05:50;98517.31;;;8.09;94.04
20710;BME280;10516;51.518;9.864;2023-02-23T12:08:27;98518.38;;;8.08;93.67
20710;BME280;10516;51.518;9.864;2023-02-23T12:10:57;98514.09;;;8.07;94.72
20710;BME280;10516;51.518;9.864;2023-02-23T12:21:00;98514.03;;;8.18;93.55
20710;BME280;10516;51.518;9.864;2023-02-23T12:23:28;98513.69;;;7.98;95.30
20710;BME280;10516;51.518;9.864;2023-02-23T12:26:04;98508.22;;;7.88;95.06
20710;BME280;10516;51.518;9.864;2023-02-23T12:28:33;98505.22;;;7.85;96.99
20710;BME280;10516;51.518;9.864;2023-02-23T12:31:21;98503.19;;;7.75;97.78
20710;BME280;10516;51.518;9.864;2023-02-23T12:33:56;98493.34;;;7.76;98.27
20710;BME280;10516;51.518;9.864;2023-02-23T12:36:39;98503.75;;;7.77;98.40
20710;BME280;10516;51.518;9.864;2023-02-23T12:41:50;98497.59;;;8.05;94.07
20710;BME280;10516;51.518;9.864;2023-02-23T12:47:15;98501.06;;;8.22;92.82
20710;BME280;10516;51.518;9.864;2023-02-23T12:49:45;98492.16;;;8.28;92.05
20710;BME280;10516;51.518;9.864;2023-02-23T12:52:24;98496.63;;;8.11;94.20
20710;BME280;10516;51.518;9.864;2023-02-23T12:54:51;98482.88;;;8.30;92.42
20710;BME280;10516;51.518;9.864;2023-02-23T12:57:25;98493.69;;;8.41;90.67
20710;BME280;10516;51.518;9.864;2023-02-23T12:59:56;98491.59;;;8.43;90.76
20710;BME280;10516;51.518;9.864;2023-02-23T13:02:27;98494.31;;;8.48;90.76
20710;BME280;10516;51.518;9.864;2023-02-23T13:10:02;98484.00;;;8.51;90.25
20710;BME280;10516;51.518;9.864;2023-02-23T13:12:39;98486.41;;;8.53;89.89
20710;BME280;10516;51.518;9.864;2023-02-23T13:15:32;98486.91;;;8.33;92.96
20710;BME280;10516;51.518;9.864;2023-02-23T13:20:36;98489.78;;;8.15;94.48
20710;BME280;10516;51.518;9.864;2023-02-23T13:25:31;98480.03;;;8.04;95.51
20710;BME280;10516;51.518;9.864;2023-02-23T13:28:01;98486.91;;;8.16;94.86
20710;BME280;10516;51.518;9.864;2023-02-23T13:30:27;98481.84;;;8.32;92.89
20710;BME280;10516;51.518;9.864;2023-02-23T13:32:56;98479.84;;;8.39;91.55
20710;BME280;10516;51.518;9.864;2023-02-23T13:35:22;98474.75;;;8.37;92.19
20710;BME280;10516;51.518;9.864;2023-02-23T13:37:50;98476.59;;;8.53;90.69
20710;BME280;10516;51.518;9.864;2023-02-23T13:45:27;98479.56;;;8.57;90.37
20710;BME280;10516;51.518;9.864;2023-02-23T13:51:16;98482.00;;;8.58;90.77
20710;BME280;10516;51.518;9.864;2023-02-23T13:55:57;98487.69;;;8.67;90.04
20710;BME280;10516;51.518;9.864;2023-02-23T13:58:28;98479.94;;;8.65;90.28
20710;BME280;10516;51.518;9.864;2023-02-23T14:01:04;98480.38;;;8.57;90.87
20710;BME280;10516;51.518;9.864;2023-02-23T14:03:29;98479.00;;;8.55;90.87
20710;BME280;10516;51.518;9.864;2023-02-23T14:05:58;98478.69;;;8.51;91.18
20710;BME280;10516;51.518;9.864;2023-02-23T14:08:34;98485.13;;;8.55;90.27
20710;BME280;10516;51.518;9.864;2023-02-23T14:11:00;98484.13;;;8.61;90.58
20710;BME280;10516;51.518;9.864;2023-02-23T14:13:27;98488.91;;;8.59;90.19
20710;BME280;10516;51.518;9.864;2023-02-23T14:16:13;98478.53;;;8.58;90.70
20710;BME280;10516;51.518;9.864;2023-02-23T14:18:55;98480.09;;;8.59;90.36
20710;BME280;10516;51.518;9.864;2023-02-23T14:21:48;98482.66;;;8.32;92.70
20710;BME280;10516;51.518;9.864;2023-02-23T14:29:16;98489.50;;;8.45;92.30
20710;BME280;10516;51.518;9.864;2023-02-23T14:32:01;98490.63;;;8.32;93.39
20710;BME280;10516;51.518;9.864;2023-02-23T14:37:21;98492.53;;;8.20;94.10
20710;BME280;10516;51.518;9.864;2023-02-23T14:39:49;98495.03;;;8.43;92.22
20710;BME280;10516;51.518;9.864;2023-02-23T14:42:19;98487.56;;;8.40;91.97
20710;BME280;10516;51.518;9.864;2023-02-23T14:44:45;98491.41;;;8.32;92.07
20710;BME280;10516;51.518;9.864;2023-02-23T14:47:15;98492.22;;;8.33;92.83
20710;BME280;10516;51.518;9.864;2023-02-23T14:49:49;98492.38;;;8.43;91.59
20710;BME280;10516;51.518;9.864;2023-02-23T14:52:25;98486.25;;;8.26;92.87
20710;BME280;10516;51.518;9.864;2023-02-23T14:54:52;98485.22;;;8.27;92.91
20710;BME280;10516;51.518;9.864;2023-02-23T14:57:34;98481.50;;;8.28;92.67
20710;BME280;10516;51.518;9.864;2023-02-23T15:00:01;98487.16;;;8.32;92.21
20710;BME280;10516;51.518;9.864;2023-02-23T15:02:29;98481.50;;;8.28;92.40
20710;BME280;10516;51.518;9.864;2023-02-23T15:04:55;98489.81;;;8.32;92.19
20710;BME280;10516;51.518;9.864;2023-02-23T15:07:30;98488.13;;;8.25;92.71
20710;BME280;10516;51.518;9.864;2023-02-23T15:09:56;98489.81;;;8.48;91.43
20710;BME280;10516;51.518;9.864;2023-02-23T15:12:23;98478.53;;;8.41;91.98
20710;BME280;10516;51.518;9.864;2023-02-23T15:14:51;98478.66;;;8.18;93.21
20710;BME280;10516;51.518;9.864;2023-02-23T15:17:18;98476.25;;;8.16;92.85
20710;BME280;10516;51.518;9.864;2023-02-23T15:19:44;98482.88;;;8.14;93.51